»·PEaware :: AIB414 KLAS-KSBA

AIB414 :: KLAS-KSBA

FLIGHT INFORMATION

Flight Status: Arrived
Operator:
Airbus Industrie
More flights by this operator :: More flights under this callsign
Pilot: Joshua V. (18904)
Aircraft: AIRBUS A321
(A321)
More flights by this aircraft type
Origin: KLAS McCarran Intl
United States
Destination: KSBA Santa Barbara Mun
United States
More flights between these airports :: More routes between these airports
Route: BOACH8 HEC PITBL1
File this flight plan on PilotEdge
Remarks:
Altitude:
(Current/Filed)
36,000ft
Speed:
(Current/Filed)
451kts
Departed: 04-Jan-21 08:49 PM
Arrived: 04-Jan-21 09:41 PM
Distance/Time
Traveled:
250nm/0:52
Distance/Time
To Go:
Arrived

Flight Plot

Page will automatically refresh every two minutes.

Flight plan parsing failed; only flown route is shown


Map Options




Map Legend


Flown Route
Filed Route
Departure Airport
Arrival Airport
Navaid (VOR, NDB)
Fix

Horizontal Profiles

Position Reports

Time Latitude Longitude Heading Altitude Ground
Speed
04-Jan-21 20:22 36.082711 -115.148823 54 2195ft 0kts
04-Jan-21 20:23 36.082711 -115.148823 54 2195ft 0kts
04-Jan-21 20:24 36.082711 -115.148823 54 2195ft 0kts
04-Jan-21 20:25 36.082711 -115.148823 54 2195ft 0kts
04-Jan-21 20:26 36.082711 -115.148823 54 2195ft 0kts
04-Jan-21 20:27 36.082711 -115.148823 54 2195ft 0kts
04-Jan-21 20:28 36.082711 -115.148823 54 2195ft 0kts
04-Jan-21 20:29 36.082711 -115.148823 54 2195ft 0kts
04-Jan-21 20:30 36.082711 -115.148823 54 2195ft 0kts
04-Jan-21 20:31 36.082711 -115.148823 54 2195ft 0kts
04-Jan-21 20:32 36.082711 -115.148823 54 2195ft 0kts
04-Jan-21 20:33 36.082711 -115.148823 54 2195ft 0kts
04-Jan-21 20:34 36.082574 -115.149122 78 2195ft 2kts
04-Jan-21 20:35 36.082817 -115.149666 145 2195ft 0kts
04-Jan-21 20:36 36.082817 -115.149666 145 2195ft 0kts
04-Jan-21 20:37 36.082817 -115.149666 145 2195ft 0kts
04-Jan-21 20:38 36.082817 -115.149666 145 2195ft 0kts
04-Jan-21 20:39 36.082816 -115.149666 145 2195ft 0kts
04-Jan-21 20:40 36.081965 -115.150057 224 2195ft 8kts
04-Jan-21 20:41 36.080784 -115.151794 223 2195ft 1kts
04-Jan-21 20:42 36.079737 -115.152055 174 2195ft 9kts
04-Jan-21 20:43 36.078627 -115.149924 89 2195ft 19kts
04-Jan-21 20:44 36.078310 -115.143126 96 2195ft 27kts
04-Jan-21 20:45 36.078341 -115.133169 93 2195ft 28kts
04-Jan-21 20:46 36.078350 -115.124915 92 2195ft 23kts
04-Jan-21 20:47 36.076517 -115.121501 241 2195ft 9kts
04-Jan-21 20:48 36.076432 -115.147803 270 2551ft 162kts
04-Jan-21 20:49 36.076155 -115.208711 269 4560ft 213kts
04-Jan-21 20:50 36.040085 -115.270888 197 6403ft 266kts
04-Jan-21 20:51 35.968304 -115.301694 194 9300ft 281kts
04-Jan-21 20:53 35.886095 -115.311829 189 11221ft 327kts
04-Jan-21 20:54 35.789586 -115.308147 178 13435ft 357kts
04-Jan-21 20:55 35.690113 -115.300150 196 16060ft 352kts
04-Jan-21 20:56 35.618901 -115.373575 231 18450ft 340kts
04-Jan-21 20:57 35.554581 -115.460968 229 20504ft 350kts
04-Jan-21 20:58 35.487859 -115.550274 229 22325ft 359kts
04-Jan-21 20:59 35.419156 -115.642108 228 23972ft 368kts
04-Jan-21 21:00 35.348948 -115.735591 228 25470ft 376kts
04-Jan-21 21:01 35.277288 -115.830803 228 26833ft 383kts
04-Jan-21 21:02 35.204463 -115.927378 228 28052ft 390kts
04-Jan-21 21:03 35.129964 -116.025929 228 29161ft 397kts
04-Jan-21 21:04 35.056171 -116.123027 228 30791ft 386kts
04-Jan-21 21:05 34.983563 -116.218489 228 32030ft 382kts
04-Jan-21 21:06 34.910387 -116.314319 228 32202ft 391kts
04-Jan-21 21:07 34.835087 -116.412684 228 32201ft 399kts
04-Jan-21 21:07 34.788940 -116.508570 255 32178ft 402kts
04-Jan-21 21:09 34.767325 -116.665997 256 32199ft 403kts
04-Jan-21 21:10 34.746988 -116.799329 256 32242ft 402kts
04-Jan-21 21:10 34.730315 -116.911029 256 32250ft 402kts
04-Jan-21 21:12 34.706803 -117.066466 256 32234ft 400kts
04-Jan-21 21:12 34.689876 -117.177264 256 32212ft 400kts
04-Jan-21 21:13 34.669486 -117.310326 256 32252ft 399kts
04-Jan-21 21:14 34.648951 -117.443113 256 32286ft 399kts
04-Jan-21 21:15 34.628309 -117.575570 256 32284ft 399kts
04-Jan-21 21:16 34.607605 -117.707931 256 32263ft 397kts
04-Jan-21 21:17 34.587057 -117.837914 256 32236ft 380kts
04-Jan-21 21:18 34.566951 -117.963865 255 32263ft 380kts
04-Jan-21 21:19 34.546808 -118.089588 255 32274ft 379kts
04-Jan-21 21:20 34.527322 -118.210558 255 31367ft 347kts
04-Jan-21 21:21 34.508884 -118.323699 256 30383ft 339kts
04-Jan-21 21:22 34.490710 -118.435095 256 29326ft 334kts
04-Jan-21 21:23 34.473044 -118.543500 256 27833ft 321kts
04-Jan-21 21:24 34.457208 -118.639428 257 26409ft 313kts
04-Jan-21 21:25 34.440387 -118.741310 258 24918ft 304kts
04-Jan-21 21:26 34.424056 -118.838384 258 22925ft 307kts
04-Jan-21 21:27 34.406706 -118.939293 260 19709ft 322kts
04-Jan-21 21:28 34.390275 -119.034838 261 17045ft 314kts
04-Jan-21 21:29 34.372940 -119.136526 262 14252ft 302kts
04-Jan-21 21:30 34.356548 -119.234224 262 11585ft 290kts
04-Jan-21 21:31 34.349801 -119.330579 281 8796ft 280kts
04-Jan-21 21:32 34.362179 -119.419883 283 6266ft 261kts
04-Jan-21 21:33 34.373558 -119.501368 284 4685ft 224kts
04-Jan-21 21:34 34.385220 -119.567070 286 4089ft 216kts
04-Jan-21 21:35 34.400895 -119.626193 295 4128ft 171kts
04-Jan-21 21:36 34.419825 -119.676428 292 3191ft 156kts
04-Jan-21 21:37 34.430259 -119.726108 276 1933ft 147kts
04-Jan-21 21:38 34.429283 -119.774654 269 1011ft 142kts
04-Jan-21 21:39 34.428262 -119.818520 269 290ft 142kts
04-Jan-21 21:40 34.427539 -119.851248 250 24ft 13kts
04-Jan-21 21:41 34.426315 -119.851283 106 24ft 7kts
04-Jan-21 21:42 34.426542 -119.845740 89 24ft 26kts
04-Jan-21 21:43 34.426678 -119.838753 93 24ft 10kts
04-Jan-21 21:44 34.425149 -119.837400 107 24ft 1kts
04-Jan-21 21:45 34.425118 -119.837284 108 24ft 0kts

Navigation Log

Ident Type
Flight plan parsing failed, navigation log unavailable